sensor_id;sensor_type;location;lat;lon;timestamp;P1;P2;P0
70243;PMS7003;57634;51.136;17.024;2023-04-24T00:01:28;15;14;11
70243;PMS7003;57634;51.136;17.024;2023-04-24T00:04:30;14;14;9
70243;PMS7003;57634;51.136;17.024;2023-04-24T00:07:32;15;13;10
70243;PMS7003;57634;51.136;17.024;2023-04-24T00:10:33;13;13;9
70243;PMS7003;57634;51.136;17.024;2023-04-24T00:13:35;15;15;10
70243;PMS7003;57634;51.136;17.024;2023-04-24T00:16:36;14;13;10
70243;PMS7003;57634;51.136;17.024;2023-04-24T00:19:38;12;11;10
70243;PMS7003;57634;51.136;17.024;2023-04-24T00:22:39;18;13;9
70243;PMS7003;57634;51.136;17.024;2023-04-24T00:25:40;15;14;9
70243;PMS7003;57634;51.136;17.024;2023-04-24T00:28:41;11;11;9
70243;PMS7003;57634;51.136;17.024;2023-04-24T00:31:44;14;13;10
70243;PMS7003;57634;51.136;17.024;2023-04-24T00:34:45;15;14;9
70243;PMS7003;57634;51.136;17.024;2023-04-24T00:37:46;16;15;10
70243;PMS7003;57634;51.136;17.024;2023-04-24T00:40:49;16;15;10
70243;PMS7003;57634;51.136;17.024;2023-04-24T00:44:20;12;10;6
70243;PMS7003;57634;51.136;17.024;2023-04-24T00:47:22;15;14;10
70243;PMS7003;57634;51.136;17.024;2023-04-24T00:50:23;17;15;11
70243;PMS7003;57634;51.136;17.024;2023-04-24T00:53:26;13;13;9
70243;PMS7003;57634;51.136;17.024;2023-04-24T00:56:27;14;12;9
70243;PMS7003;57634;51.136;17.024;2023-04-24T00:59:29;14;11;8
70243;PMS7003;57634;51.136;17.024;2023-04-24T01:02:31;17;15;11
70243;PMS7003;57634;51.136;17.024;2023-04-24T01:08:04;16;15;9
70243;PMS7003;57634;51.136;17.024;2023-04-24T01:11:05;15;14;10
70243;PMS7003;57634;51.136;17.024;2023-04-24T01:14:06;15;15;9
70243;PMS7003;57634;51.136;17.024;2023-04-24T01:17:08;17;16;10
70243;PMS7003;57634;51.136;17.024;2023-04-24T01:20:10;18;15;11
70243;PMS7003;57634;51.136;17.024;2023-04-24T01:23:12;16;14;10
70243;PMS7003;57634;51.136;17.024;2023-04-24T01:26:13;14;13;10
70243;PMS7003;57634;51.136;17.024;2023-04-24T01:29:16;16;15;11
70243;PMS7003;57634;51.136;17.024;2023-04-24T01:32:18;15;14;10
70243;PMS7003;57634;51.136;17.024;2023-04-24T01:35:20;14;13;9
70243;PMS7003;57634;51.136;17.024;2023-04-24T01:38:21;14;14;10
70243;PMS7003;57634;51.136;17.024;2023-04-24T01:41:23;15;14;9
70243;PMS7003;57634;51.136;17.024;2023-04-24T01:44:25;18;15;11
70243;PMS7003;57634;51.136;17.024;2023-04-24T01:47:53;15;13;9
70243;PMS7003;57634;51.136;17.024;2023-04-24T01:50:55;15;13;10
70243;PMS7003;57634;51.136;17.024;2023-04-24T01:53:57;13;13;10
70243;PMS7003;57634;51.136;17.024;2023-04-24T01:56:58;18;16;11
70243;PMS7003;57634;51.136;17.024;2023-04-24T02:00:03;15;13;8
70243;PMS7003;57634;51.136;17.024;2023-04-24T02:03:06;13;13;9
70243;PMS7003;57634;51.136;17.024;2023-04-24T02:06:08;14;13;10
70243;PMS7003;57634;51.136;17.024;2023-04-24T02:09:10;15;15;9
70243;PMS7003;57634;51.136;17.024;2023-04-24T02:12:11;13;12;10
70243;PMS7003;57634;51.136;17.024;2023-04-24T02:15:12;13;10;7
70243;PMS7003;57634;51.136;17.024;2023-04-24T02:18:14;16;15;11
70243;PMS7003;57634;51.136;17.024;2023-04-24T02:21:17;16;16;11
70243;PMS7003;57634;51.136;17.024;2023-04-24T02:24:18;14;13;9
70243;PMS7003;57634;51.136;17.024;2023-04-24T02:27:45;17;15;10
70243;PMS7003;57634;51.136;17.024;2023-04-24T02:30:47;17;16;11
70243;PMS7003;57634;51.136;17.024;2023-04-24T02:33:48;13;12;8
70243;PMS7003;57634;51.136;17.024;2023-04-24T02:36:50;14;13;9
70243;PMS7003;57634;51.136;17.024;2023-04-24T02:39:51;13;13;9
70243;PMS7003;57634;51.136;17.024;2023-04-24T02:42:52;13;12;8
70243;PMS7003;57634;51.136;17.024;2023-04-24T02:45:54;16;15;9
70243;PMS7003;57634;51.136;17.024;2023-04-24T02:48:55;14;14;9
70243;PMS7003;57634;51.136;17.024;2023-04-24T02:51:56;14;13;9
70243;PMS7003;57634;51.136;17.024;2023-04-24T02:54:57;15;14;10
70243;PMS7003;57634;51.136;17.024;2023-04-24T02:57:58;13;13;10
70243;PMS7003;57634;51.136;17.024;2023-04-24T03:01:00;16;14;11
70243;PMS7003;57634;51.136;17.024;2023-04-24T03:04:01;11;10;8
70243;PMS7003;57634;51.136;17.024;2023-04-24T03:07:03;15;13;8
70243;PMS7003;57634;51.136;17.024;2023-04-24T03:10:34;14;12;9
70243;PMS7003;57634;51.136;17.024;2023-04-24T03:13:35;13;12;8
70243;PMS7003;57634;51.136;17.024;2023-04-24T03:16:36;12;12;8
70243;PMS7003;57634;51.136;17.024;2023-04-24T03:19:39;12;11;9
70243;PMS7003;57634;51.136;17.024;2023-04-24T03:22:41;14;13;8
70243;PMS7003;57634;51.136;17.024;2023-04-24T03:25:42;14;14;9
70243;PMS7003;57634;51.136;17.024;2023-04-24T03:28:43;14;13;10
70243;PMS7003;57634;51.136;17.024;2023-04-24T03:31:45;17;15;10
70243;PMS7003;57634;51.136;17.024;2023-04-24T03:34:46;13;12;8
70243;PMS7003;57634;51.136;17.024;2023-04-24T03:37:47;14;13;10
70243;PMS7003;57634;51.136;17.024;2023-04-24T03:40:49;14;13;9
70243;PMS7003;57634;51.136;17.024;2023-04-24T03:43:50;13;12;10
70243;PMS7003;57634;51.136;17.024;2023-04-24T03:46:52;18;13;8
70243;PMS7003;57634;51.136;17.024;2023-04-24T03:49:53;13;11;8
70243;PMS7003;57634;51.136;17.024;2023-04-24T03:53:22;14;12;9
70243;PMS7003;57634;51.136;17.024;2023-04-24T03:56:23;14;13;8
70243;PMS7003;57634;51.136;17.024;2023-04-24T03:59:24;9;8;4
70243;PMS7003;57634;51.136;17.024;2023-04-24T04:02:25;14;14;11
70243;PMS7003;57634;51.136;17.024;2023-04-24T04:05:26;14;13;9
70243;PMS7003;57634;51.136;17.024;2023-04-24T04:08:27;14;14;9
70243;PMS7003;57634;51.136;17.024;2023-04-24T04:11:29;11;11;8
70243;PMS7003;57634;51.136;17.024;2023-04-24T04:14:31;9;9;6
70243;PMS7003;57634;51.136;17.024;2023-04-24T04:17:33;16;14;10
70243;PMS7003;57634;51.136;17.024;2023-04-24T04:20:34;15;13;8
70243;PMS7003;57634;51.136;17.024;2023-04-24T04:23:35;15;15;10
70243;PMS7003;57634;51.136;17.024;2023-04-24T04:26:37;14;13;10
70243;PMS7003;57634;51.136;17.024;2023-04-24T04:29:39;18;17;11
70243;PMS7003;57634;51.136;17.024;2023-04-24T04:32:41;11;11;8
70243;PMS7003;57634;51.136;17.024;2023-04-24T04:35:42;15;15;10
70243;PMS7003;57634;51.136;17.024;2023-04-24T04:39:10;15;15;10
70243;PMS7003;57634;51.136;17.024;2023-04-24T04:42:11;15;15;11
70243;PMS7003;57634;51.136;17.024;2023-04-24T04:45:14;15;13;9
70243;PMS7003;57634;51.136;17.024;2023-04-24T04:48:18;12;11;9
70243;PMS7003;57634;51.136;17.024;2023-04-24T04:51:19;14;13;9
70243;PMS7003;57634;51.136;17.024;2023-04-24T04:54:21;14;14;10
70243;PMS7003;57634;51.136;17.024;2023-04-24T04:57:22;17;15;10
70243;PMS7003;57634;51.136;17.024;2023-04-24T05:00:23;13;12;9
70243;PMS7003;57634;51.136;17.024;2023-04-24T05:03:26;17;15;10
70243;PMS7003;57634;51.136;17.024;2023-04-24T05:06:27;16;16;11
70243;PMS7003;57634;51.136;17.024;2023-04-24T05:09:28;14;14;10
70243;PMS7003;57634;51.136;17.024;2023-04-24T05:12:30;13;12;9
70243;PMS7003;57634;51.136;17.024;2023-04-24T05:15:31;14;14;11
70243;PMS7003;57634;51.136;17.024;2023-04-24T05:19:01;15;13;10
70243;PMS7003;57634;51.136;17.024;2023-04-24T05:22:03;17;16;11
70243;PMS7003;57634;51.136;17.024;2023-04-24T05:25:07;14;13;10
70243;PMS7003;57634;51.136;17.024;2023-04-24T05:28:09;12;12;8
70243;PMS7003;57634;51.136;17.024;2023-04-24T05:31:11;13;12;9
70243;PMS7003;57634;51.136;17.024;2023-04-24T05:34:13;14;14;10
70243;PMS7003;57634;51.136;17.024;2023-04-24T05:37:17;11;10;8
70243;PMS7003;57634;51.136;17.024;2023-04-24T05:40:18;12;12;9
70243;PMS7003;57634;51.136;17.024;2023-04-24T05:43:20;11;9;7
70243;PMS7003;57634;51.136;17.024;2023-04-24T05:46:21;10;10;7
70243;PMS7003;57634;51.136;17.024;2023-04-24T05:49:22;12;11;9
70243;PMS7003;57634;51.136;17.024;2023-04-24T05:52:24;10;10;9
70243;PMS7003;57634;51.136;17.024;2023-04-24T05:55:25;10;10;7
70243;PMS7003;57634;51.136;17.024;2023-04-24T05:58:52;11;9;7
70243;PMS7003;57634;51.136;17.024;2023-04-24T06:01:53;9;9;7
70243;PMS7003;57634;51.136;17.024;2023-04-24T06:04:55;10;10;7
70243;PMS7003;57634;51.136;17.024;2023-04-24T06:07:58;8;7;5
70243;PMS7003;57634;51.136;17.024;2023-04-24T06:10:59;9;8;6
70243;PMS7003;57634;51.136;17.024;2023-04-24T06:14:00;8;8;6
70243;PMS7003;57634;51.136;17.024;2023-04-24T06:17:02;8;8;6
70243;PMS7003;57634;51.136;17.024;2023-04-24T06:20:04;8;7;5
70243;PMS7003;57634;51.136;17.024;2023-04-24T06:23:08;8;7;5
70243;PMS7003;57634;51.136;17.024;2023-04-24T06:26:09;6;6;5
70243;PMS7003;57634;51.136;17.024;2023-04-24T06:29:11;7;7;5
70243;PMS7003;57634;51.136;17.024;2023-04-24T06:32:12;7;6;5
70243;PMS7003;57634;51.136;17.024;2023-04-24T06:35:14;5;5;5
70243;PMS7003;57634;51.136;17.024;2023-04-24T06:38:43;6;6;5
70243;PMS7003;57634;51.136;17.024;2023-04-24T06:41:44;8;8;5
70243;PMS7003;57634;51.136;17.024;2023-04-24T06:44:45;8;8;6
70243;PMS7003;57634;51.136;17.024;2023-04-24T06:47:47;7;7;5
70243;PMS7003;57634;51.136;17.024;2023-04-24T06:50:48;6;6;5
70243;PMS7003;57634;51.136;17.024;2023-04-24T06:53:50;9;9;6
70243;PMS7003;57634;51.136;17.024;2023-04-24T06:56:52;8;8;6
70243;PMS7003;57634;51.136;17.024;2023-04-24T06:59:53;9;8;6
70243;PMS7003;57634;51.136;17.024;2023-04-24T07:02:54;7;7;5
70243;PMS7003;57634;51.136;17.024;2023-04-24T07:05:56;9;8;5
70243;PMS7003;57634;51.136;17.024;2023-04-24T07:08:58;8;7;5
70243;PMS7003;57634;51.136;17.024;2023-04-24T07:12:02;9;8;6
70243;PMS7003;57634;51.136;17.024;2023-04-24T07:15:04;7;6;4
70243;PMS7003;57634;51.136;17.024;2023-04-24T07:18:34;8;7;5
70243;PMS7003;57634;51.136;17.024;2023-04-24T07:21:37;7;7;5
70243;PMS7003;57634;51.136;17.024;2023-04-24T07:24:39;9;8;6
70243;PMS7003;57634;51.136;17.024;2023-04-24T07:27:40;9;7;5
70243;PMS7003;57634;51.136;17.024;2023-04-24T07:30:41;9;7;4
70243;PMS7003;57634;51.136;17.024;2023-04-24T07:33:43;6;6;5
70243;PMS7003;57634;51.136;17.024;2023-04-24T07:36:44;7;7;5
70243;PMS7003;57634;51.136;17.024;2023-04-24T07:39:46;7;6;5
70243;PMS7003;57634;51.136;17.024;2023-04-24T07:42:48;7;6;5
70243;PMS7003;57634;51.136;17.024;2023-04-24T07:45:50;7;6;4
70243;PMS7003;57634;51.136;17.024;2023-04-24T07:48:52;6;6;4
70243;PMS7003;57634;51.136;17.024;2023-04-24T07:51:54;6;6;4
70243;PMS7003;57634;51.136;17.024;2023-04-24T07:54:55;4;4;3
70243;PMS7003;57634;51.136;17.024;2023-04-24T07:58:28;6;6;5
70243;PMS7003;57634;51.136;17.024;2023-04-24T08:01:29;7;6;5
70243;PMS7003;57634;51.136;17.024;2023-04-24T08:04:30;5;5;4
70243;PMS7003;57634;51.136;17.024;2023-04-24T08:07:31;5;5;4
70243;PMS7003;57634;51.136;17.024;2023-04-24T08:10:32;6;6;4
70243;PMS7003;57634;51.136;17.024;2023-04-24T08:13:33;6;5;4
70243;PMS7003;57634;51.136;17.024;2023-04-24T08:16:35;4;4;3
70243;PMS7003;57634;51.136;17.024;2023-04-24T08:19:37;6;6;4
70243;PMS7003;57634;51.136;17.024;2023-04-24T08:22:48;5;5;4
70243;PMS7003;57634;51.136;17.024;2023-04-24T08:25:49;7;6;4
70243;PMS7003;57634;51.136;17.024;2023-04-24T08:28:51;5;4;3
70243;PMS7003;57634;51.136;17.024;2023-04-24T08:31:52;5;4;3
70243;PMS7003;57634;51.136;17.024;2023-04-24T08:35:21;4;4;3
70243;PMS7003;57634;51.136;17.024;2023-04-24T08:38:23;5;4;2
70243;PMS7003;57634;51.136;17.024;2023-04-24T08:41:26;5;5;3
70243;PMS7003;57634;51.136;17.024;2023-04-24T08:44:28;3;3;2
70243;PMS7003;57634;51.136;17.024;2023-04-24T08:47:29;4;4;3
70243;PMS7003;57634;51.136;17.024;2023-04-24T08:50:32;5;5;3
70243;PMS7003;57634;51.136;17.024;2023-04-24T08:53:35;4;4;3
70243;PMS7003;57634;51.136;17.024;2023-04-24T08:56:37;3;3;2
70243;PMS7003;57634;51.136;17.024;2023-04-24T08:59:41;5;5;3
70243;PMS7003;57634;51.136;17.024;2023-04-24T09:02:44;4;4;3
70243;PMS7003;57634;51.136;17.024;2023-04-24T09:05:48;5;5;3
70243;PMS7003;57634;51.136;17.024;2023-04-24T09:09:19;5;5;3
70243;PMS7003;57634;51.136;17.024;2023-04-24T09:12:21;5;5;4
70243;PMS7003;57634;51.136;17.024;2023-04-24T09:15:22;2;2;2
70243;PMS7003;57634;51.136;17.024;2023-04-24T09:18:25;4;4;3
70243;PMS7003;57634;51.136;17.024;2023-04-24T09:21:31;6;5;3
70243;PMS7003;57634;51.136;17.024;2023-04-24T09:24:34;4;4;2
70243;PMS7003;57634;51.136;17.024;2023-04-24T09:27:36;4;3;2
70243;PMS7003;57634;51.136;17.024;2023-04-24T09:30:42;4;3;3
70243;PMS7003;57634;51.136;17.024;2023-04-24T09:40:30;4;4;3
70243;PMS7003;57634;51.136;17.024;2023-04-24T09:43:35;3;3;2
70243;PMS7003;57634;51.136;17.024;2023-04-24T09:46:36;5;4;3
70243;PMS7003;57634;51.136;17.024;2023-04-24T09:49:37;5;4;3
70243;PMS7003;57634;51.136;17.024;2023-04-24T09:52:43;4;4;3
70243;PMS7003;57634;51.136;17.024;2023-04-24T09:55:45;5;4;3
70243;PMS7003;57634;51.136;17.024;2023-04-24T09:58:50;4;3;3
70243;PMS7003;57634;51.136;17.024;2023-04-24T10:01:51;6;4;3
70243;PMS7003;57634;51.136;17.024;2023-04-24T10:04:56;5;4;3
70243;PMS7003;57634;51.136;17.024;2023-04-24T10:08:25;5;5;4
70243;PMS7003;57634;51.136;17.024;2023-04-24T10:11:32;5;5;4
70243;PMS7003;57634;51.136;17.024;2023-04-24T10:14:33;5;5;4
70243;PMS7003;57634;51.136;17.024;2023-04-24T10:17:35;5;4;3
70243;PMS7003;57634;51.136;17.024;2023-04-24T10:20:38;5;5;4
70243;PMS7003;57634;51.136;17.024;2023-04-24T10:23:41;5;5;3
70243;PMS7003;57634;51.136;17.024;2023-04-24T10:26:43;4;4;3
70243;PMS7003;57634;51.136;17.024;2023-04-24T10:29:46;6;6;4
70243;PMS7003;57634;51.136;17.024;2023-04-24T10:32:49;4;4;3
70243;PMS7003;57634;51.136;17.024;2023-04-24T10:35:51;5;5;4
70243;PMS7003;57634;51.136;17.024;2023-04-24T10:42:29;3;2;2
70243;PMS7003;57634;51.136;17.024;2023-04-24T10:45:31;3;3;2
70243;PMS7003;57634;51.136;17.024;2023-04-24T11:12:08;7;6;4
70243;PMS7003;57634;51.136;17.024;2023-04-24T11:15:15;5;5;3
70243;PMS7003;57634;51.136;17.024;2023-04-24T11:18:20;6;6;4
70243;PMS7003;57634;51.136;17.024;2023-04-24T11:21:23;6;5;4
70243;PMS7003;57634;51.136;17.024;2023-04-24T11:27:43;7;6;4
70243;PMS7003;57634;51.136;17.024;2023-04-24T11:34:31;6;5;4
70243;PMS7003;57634;51.136;17.024;2023-04-24T11:37:34;7;7;5
70243;PMS7003;57634;51.136;17.024;2023-04-24T11:40:40;8;7;5
70243;PMS7003;57634;51.136;17.024;2023-04-24T11:43:43;5;5;4
70243;PMS7003;57634;51.136;17.024;2023-04-24T11:46:45;4;4;4
70243;PMS7003;57634;51.136;17.024;2023-04-24T11:49:46;4;4;3
70243;PMS7003;57634;51.136;17.024;2023-04-24T12:06:08;5;5;4
70243;PMS7003;57634;51.136;17.024;2023-04-24T12:09:11;5;5;4
70243;PMS7003;57634;51.136;17.024;2023-04-24T12:12:41;0;0;0
70243;PMS7003;57634;51.136;17.024;2023-04-24T12:15:43;6;6;4
70243;PMS7003;57634;51.136;17.024;2023-04-24T12:18:45;5;5;4
70243;PMS7003;57634;51.136;17.024;2023-04-24T12:22:08;7;5;3
70243;PMS7003;57634;51.136;17.024;2023-04-24T12:25:01;6;6;4
70243;PMS7003;57634;51.136;17.024;2023-04-24T12:31:11;7;7;4
70243;PMS7003;57634;51.136;17.024;2023-04-24T12:37:47;7;6;5
70243;PMS7003;57634;51.136;17.024;2023-04-24T12:41:00;8;7;6
70243;PMS7003;57634;51.136;17.024;2023-04-24T12:44:01;6;6;5
70243;PMS7003;57634;51.136;17.024;2023-04-24T12:47:02;8;8;6
70243;PMS7003;57634;51.136;17.024;2023-04-24T12:50:04;6;6;4
70243;PMS7003;57634;51.136;17.024;2023-04-24T12:53:07;4;4;3
70243;PMS7003;57634;51.136;17.024;2023-04-24T12:56:09;5;4;3
70243;PMS7003;57634;51.136;17.024;2023-04-24T12:59:10;4;4;3
70243;PMS7003;57634;51.136;17.024;2023-04-24T13:02:12;5;4;3
70243;PMS7003;57634;51.136;17.024;2023-04-24T13:05:14;5;5;4
70243;PMS7003;57634;51.136;17.024;2023-04-24T13:08:16;6;6;5
70243;PMS7003;57634;51.136;17.024;2023-04-24T13:11:47;4;4;2
70243;PMS7003;57634;51.136;17.024;2023-04-24T13:14:49;4;3;2
70243;PMS7003;57634;51.136;17.024;2023-04-24T13:17:51;3;3;2
70243;PMS7003;57634;51.136;17.024;2023-04-24T13:20:52;2;2;1
70243;PMS7003;57634;51.136;17.024;2023-04-24T13:23:54;1;0;0
70243;PMS7003;57634;51.136;17.024;2023-04-24T13:26:55;0;0;0
70243;PMS7003;57634;51.136;17.024;2023-04-24T13:29:57;0;0;0
70243;PMS7003;57634;51.136;17.024;2023-04-24T13:36:04;1;0;0
70243;PMS7003;57634;51.136;17.024;2023-04-24T13:52:05;1;0;0
70243;PMS7003;57634;51.136;17.024;2023-04-24T14:05:22;0;0;0
70243;PMS7003;57634;51.136;17.024;2023-04-24T14:08:24;1;1;0
70243;PMS7003;57634;51.136;17.024;2023-04-24T14:14:36;0;0;0
70243;PMS7003;57634;51.136;17.024;2023-04-24T14:27:53;1;0;0
70243;PMS7003;57634;51.136;17.024;2023-04-24T14:34:00;0;0;0
70243;PMS7003;57634;51.136;17.024;2023-04-24T14:37:02;3;3;2
70243;PMS7003;57634;51.136;17.024;2023-04-24T14:40:03;1;1;1
70243;PMS7003;57634;51.136;17.024;2023-04-24T14:43:32;1;1;0
70243;PMS7003;57634;51.136;17.024;2023-04-24T15:30:42;2;1;0
70243;PMS7003;57634;51.136;17.024;2023-04-24T15:55:48;2;0;0
70243;PMS7003;57634;51.136;17.024;2023-04-24T15:59:25;1;0;0
70243;PMS7003;57634;51.136;17.024;2023-04-24T16:02:29;0;0;0
70243;PMS7003;57634;51.136;17.024;2023-04-24T16:05:30;0;0;0
70243;PMS7003;57634;51.136;17.024;2023-04-24T16:08:32;0;0;0
70243;PMS7003;57634;51.136;17.024;2023-04-24T16:11:33;0;0;0
70243;PMS7003;57634;51.136;17.024;2023-04-24T16:14:37;0;0;0
70243;PMS7003;57634;51.136;17.024;2023-04-24T16:17:39;0;0;0
70243;PMS7003;57634;51.136;17.024;2023-04-24T16:20:40;0;0;0
70243;PMS7003;57634;51.136;17.024;2023-04-24T16:23:42;0;0;0
70243;PMS7003;57634;51.136;17.024;2023-04-24T16:26:43;0;0;0
70243;PMS7003;57634;51.136;17.024;2023-04-24T16:29:44;0;0;0
70243;PMS7003;57634;51.136;17.024;2023-04-24T16:32:46;0;0;0
70243;PMS7003;57634;51.136;17.024;2023-04-24T16:35:48;0;0;0
70243;PMS7003;57634;51.136;17.024;2023-04-24T16:39:17;0;0;0
70243;PMS7003;57634;51.136;17.024;2023-04-24T16:42:18;0;0;0
70243;PMS7003;57634;51.136;17.024;2023-04-24T16:45:20;0;0;0
70243;PMS7003;57634;51.136;17.024;2023-04-24T16:48:21;1;0;0
70243;PMS7003;57634;51.136;17.024;2023-04-24T16:51:22;0;0;0
70243;PMS7003;57634;51.136;17.024;2023-04-24T16:54:24;3;3;2
70243;PMS7003;57634;51.136;17.024;2023-04-24T16:57:25;14;14;10
70243;PMS7003;57634;51.136;17.024;2023-04-24T17:00:26;28;25;16
70243;PMS7003;57634;51.136;17.024;2023-04-24T17:03:28;21;18;12
70243;PMS7003;57634;51.136;17.024;2023-04-24T17:06:29;16;13;10
70243;PMS7003;57634;51.136;17.024;2023-04-24T17:09:31;18;15;11
70243;PMS7003;57634;51.136;17.024;2023-04-24T17:12:32;20;18;11
70243;PMS7003;57634;51.136;17.024;2023-04-24T17:15:33;14;12;8
70243;PMS7003;57634;51.136;17.024;2023-04-24T17:18:35;11;10;7
70243;PMS7003;57634;51.136;17.024;2023-04-24T17:21:37;18;16;11
70243;PMS7003;57634;51.136;17.024;2023-04-24T17:25:04;19;16;11
70243;PMS7003;57634;51.136;17.024;2023-04-24T17:28:14;10;10;6
70243;PMS7003;57634;51.136;17.024;2023-04-24T17:31:21;6;5;4
70243;PMS7003;57634;51.136;17.024;2023-04-24T17:34:23;5;4;3
70243;PMS7003;57634;51.136;17.024;2023-04-24T17:37:24;11;9;6
70243;PMS7003;57634;51.136;17.024;2023-04-24T17:40:26;13;12;9
70243;PMS7003;57634;51.136;17.024;2023-04-24T17:43:28;12;11;8
70243;PMS7003;57634;51.136;17.024;2023-04-24T17:46:32;8;7;5
70243;PMS7003;57634;51.136;17.024;2023-04-24T17:49:34;11;9;7
70243;PMS7003;57634;51.136;17.024;2023-04-24T17:53:06;17;15;10
70243;PMS7003;57634;51.136;17.024;2023-04-24T17:56:10;17;17;13
70243;PMS7003;57634;51.136;17.024;2023-04-24T17:59:11;14;14;9
70243;PMS7003;57634;51.136;17.024;2023-04-24T18:02:12;3;2;1
70243;PMS7003;57634;51.136;17.024;2023-04-24T18:05:13;3;3;2
70243;PMS7003;57634;51.136;17.024;2023-04-24T18:08:15;5;4;3
70243;PMS7003;57634;51.136;17.024;2023-04-24T18:11:17;4;4;2
70243;PMS7003;57634;51.136;17.024;2023-04-24T18:14:18;4;4;3
70243;PMS7003;57634;51.136;17.024;2023-04-24T18:17:19;3;3;3
70243;PMS7003;57634;51.136;17.024;2023-04-24T18:20:21;3;3;2
70243;PMS7003;57634;51.136;17.024;2023-04-24T18:23:22;5;5;4
70243;PMS7003;57634;51.136;17.024;2023-04-24T18:26:23;7;5;4
70243;PMS7003;57634;51.136;17.024;2023-04-24T18:29:25;4;4;2
70243;PMS7003;57634;51.136;17.024;2023-04-24T18:32:26;2;2;2
70243;PMS7003;57634;51.136;17.024;2023-04-24T18:35:56;3;3;2
70243;PMS7003;57634;51.136;17.024;2023-04-24T18:38:57;2;2;2
70243;PMS7003;57634;51.136;17.024;2023-04-24T18:41:58;3;2;2
70243;PMS7003;57634;51.136;17.024;2023-04-24T18:45:01;3;3;2
70243;PMS7003;57634;51.136;17.024;2023-04-24T18:48:04;3;2;1
70243;PMS7003;57634;51.136;17.024;2023-04-24T18:51:05;4;4;3
70243;PMS7003;57634;51.136;17.024;2023-04-24T18:54:08;3;3;2
70243;PMS7003;57634;51.136;17.024;2023-04-24T18:57:09;3;3;2
70243;PMS7003;57634;51.136;17.024;2023-04-24T19:00:10;4;4;3
70243;PMS7003;57634;51.136;17.024;2023-04-24T19:03:12;4;3;2
70243;PMS7003;57634;51.136;17.024;2023-04-24T19:06:13;4;4;3
70243;PMS7003;57634;51.136;17.024;2023-04-24T19:09:14;3;3;2
70243;PMS7003;57634;51.136;17.024;2023-04-24T19:12:15;5;5;4
70243;PMS7003;57634;51.136;17.024;2023-04-24T19:15:17;5;4;3
70243;PMS7003;57634;51.136;17.024;2023-04-24T19:18:44;6;4;3
70243;PMS7003;57634;51.136;17.024;2023-04-24T19:21:45;5;5;4
70243;PMS7003;57634;51.136;17.024;2023-04-24T19:24:47;6;5;3
70243;PMS7003;57634;51.136;17.024;2023-04-24T19:27:48;6;6;4
70243;PMS7003;57634;51.136;17.024;2023-04-24T19:30:50;6;6;5
70243;PMS7003;57634;51.136;17.024;2023-04-24T19:33:51;5;5;4
70243;PMS7003;57634;51.136;17.024;2023-04-24T19:36:53;6;5;4
70243;PMS7003;57634;51.136;17.024;2023-04-24T19:39:54;8;7;5
70243;PMS7003;57634;51.136;17.024;2023-04-24T19:42:55;7;7;5
70243;PMS7003;57634;51.136;17.024;2023-04-24T19:45:57;7;6;5
70243;PMS7003;57634;51.136;17.024;2023-04-24T19:48:58;9;7;5
70243;PMS7003;57634;51.136;17.024;2023-04-24T19:51:59;8;7;5
70243;PMS7003;57634;51.136;17.024;2023-04-24T19:55:00;7;6;4
70243;PMS7003;57634;51.136;17.024;2023-04-24T19:58:01;8;6;5
70243;PMS7003;57634;51.136;17.024;2023-04-24T20:01:03;7;6;4
70243;PMS7003;57634;51.136;17.024;2023-04-24T20:04:31;7;6;4
70243;PMS7003;57634;51.136;17.024;2023-04-24T20:07:32;11;8;6
70243;PMS7003;57634;51.136;17.024;2023-04-24T20:10:35;8;8;5
70243;PMS7003;57634;51.136;17.024;2023-04-24T20:13:36;10;9;6
70243;PMS7003;57634;51.136;17.024;2023-04-24T20:16:38;8;8;6
70243;PMS7003;57634;51.136;17.024;2023-04-24T20:22:57;5;5;4
70243;PMS7003;57634;51.136;17.024;2023-04-24T20:25:58;6;5;4
70243;PMS7003;57634;51.136;17.024;2023-04-24T20:29:01;7;6;5
70243;PMS7003;57634;51.136;17.024;2023-04-24T20:32:03;6;6;4
70243;PMS7003;57634;51.136;17.024;2023-04-24T20:35:30;18;17;12
